AAL784 KCLT-EDDM
Flight info
| Callsign | AAL784 |
|---|---|
| Flight time | N/A |
| Altitude | 35000 |
| Route | KILNS5 AUDII DCT FAK DCT RBV Q430 RIFLE DCT YAHOO DCT WHALE N59E NANSO/M081F350 N59E RAFIN DCT 45N050W 47N040W 49N030W 51N020W DCT DINIM DCT ELSOX/N0463F350 DCT UNLID DCT LEDGO DCT OXLOW DCT KONAN DCT KOK DCT MATUG DCT MOVUM T109 HAREM T104 ROKIL ROKIL1B |
| Aircraft | B772/H-SDE2E3FGHIJ5LORVWXY/LB1D1 |
Departure
| Time | 2026-05-05 05:12 |
|---|---|
| Airport | Charlotte Douglas International Airport (KCLT) |
Arrival
| Time | N/A |
|---|---|
| Airport | Munich Airport (EDDM) |
| Time | Latitude | Longitude | Altitude | Speed | Heading |
|---|---|---|---|---|---|
| 2026-05-05 04:17 | 35.21828 | -80.94153 | 734 ft | 0 kts | 252° |
| 2026-05-05 04:58 | 35.21830 | -80.94146 | 734 ft | 2 kts | 270° |
| 2026-05-05 04:59 | 35.21828 | -80.94128 | 734 ft | 2 kts | 283° |
| 2026-05-05 04:59 | 35.21825 | -80.94110 | 735 ft | 2 kts | 279° |
| 2026-05-05 04:59 | 35.21822 | -80.94091 | 735 ft | 2 kts | 278° |
| 2026-05-05 04:59 | 35.21820 | -80.94073 | 735 ft | 2 kts | 278° |
| 2026-05-05 05:00 | 35.21818 | -80.94055 | 735 ft | 2 kts | 278° |
| 2026-05-05 05:00 | 35.21816 | -80.94037 | 736 ft | 2 kts | 278° |
| 2026-05-05 05:00 | 35.21813 | -80.94019 | 736 ft | 1 kts | 278° |
| 2026-05-05 05:00 | 35.21812 | -80.94009 | 736 ft | 1 kts | 258° |
| 2026-05-05 05:01 | 35.21816 | -80.93999 | 736 ft | 1 kts | 227° |
| 2026-05-05 05:01 | 35.21817 | -80.93999 | 736 ft | 0 kts | 227° |
| 2026-05-05 05:04 | 35.21815 | -80.94000 | 736 ft | 1 kts | 227° |
| 2026-05-05 05:05 | 35.21795 | -80.94024 | 735 ft | 5 kts | 216° |
| 2026-05-05 05:05 | 35.21758 | -80.94035 | 735 ft | 6 kts | 167° |
| 2026-05-05 05:05 | 35.21723 | -80.94006 | 735 ft | 6 kts | 136° |
| 2026-05-05 05:05 | 35.21687 | -80.93961 | 735 ft | 7 kts | 134° |
| 2026-05-05 05:06 | 35.21644 | -80.93915 | 735 ft | 8 kts | 139° |
| 2026-05-05 05:06 | 35.21595 | -80.93862 | 735 ft | 9 kts | 137° |
| 2026-05-05 05:06 | 35.21578 | -80.93843 | 735 ft | 0 kts | 137° |
| 2026-05-05 05:06 | 35.21566 | -80.93830 | 735 ft | 3 kts | 137° |
| 2026-05-05 05:07 | 35.21545 | -80.93806 | 735 ft | 4 kts | 137° |
| 2026-05-05 05:07 | 35.21515 | -80.93772 | 735 ft | 6 kts | 137° |
| 2026-05-05 05:07 | 35.21478 | -80.93731 | 735 ft | 7 kts | 137° |
| 2026-05-05 05:07 | 35.21453 | -80.93687 | 735 ft | 5 kts | 62° |
| 2026-05-05 05:08 | 35.21483 | -80.93671 | 735 ft | 7 kts | 10° |
| 2026-05-05 05:08 | 35.21561 | -80.93671 | 736 ft | 12 kts | 358° |
| 2026-05-05 05:08 | 35.21646 | -80.93680 | 737 ft | 12 kts | 356° |
| 2026-05-05 05:08 | 35.21730 | -80.93687 | 738 ft | 12 kts | 356° |
| 2026-05-05 05:09 | 35.21831 | -80.93695 | 739 ft | 15 kts | 356° |
| 2026-05-05 05:09 | 35.21952 | -80.93708 | 741 ft | 22 kts | 352° |
| 2026-05-05 05:09 | 35.22109 | -80.93724 | 742 ft | 22 kts | 358° |
| 2026-05-05 05:09 | 35.22260 | -80.93723 | 743 ft | 21 kts | 356° |
| 2026-05-05 05:10 | 35.22389 | -80.93745 | 744 ft | 10 kts | 355° |
| 2026-05-05 05:10 | 35.22422 | -80.93748 | 745 ft | 3 kts | 355° |
| 2026-05-05 05:10 | 35.22450 | -80.93751 | 745 ft | 4 kts | 356° |
| 2026-05-05 05:10 | 35.22490 | -80.93739 | 745 ft | 7 kts | 49° |
| 2026-05-05 05:11 | 35.22510 | -80.93666 | 746 ft | 10 kts | 83° |
| 2026-05-05 05:11 | 35.22487 | -80.93618 | 745 ft | 7 kts | 167° |
| 2026-05-05 05:11 | 35.22360 | -80.93602 | 744 ft | 37 kts | 175° |
| 2026-05-05 05:11 | 35.21833 | -80.93559 | 739 ft | 112 kts | 175° |
| 2026-05-05 05:12 | 35.20829 | -80.93485 | 725 ft | 174 kts | 178° |
| 2026-05-05 05:12 | 35.19553 | -80.93378 | 1247 ft | 184 kts | 178° |
| 2026-05-05 05:12 | 35.18343 | -80.93265 | 2312 ft | 166 kts | 181° |
| 2026-05-05 05:12 | 35.17189 | -80.93183 | 2765 ft | 175 kts | 182° |
| 2026-05-05 05:13 | 35.15902 | -80.93116 | 3074 ft | 194 kts | 182° |
| 2026-05-05 05:13 | 35.14502 | -80.93044 | 3446 ft | 210 kts | 182° |
| 2026-05-05 05:13 | 35.12976 | -80.92965 | 3803 ft | 229 kts | 181° |
| 2026-05-05 05:13 | 35.11317 | -80.92799 | 4184 ft | 248 kts | 169° |
| 2026-05-05 05:14 | 35.09770 | -80.91797 | 4705 ft | 266 kts | 141° |
| 2026-05-05 05:14 | 35.08730 | -80.89906 | 5351 ft | 279 kts | 113° |
| 2026-05-05 05:14 | 35.08484 | -80.87547 | 6012 ft | 288 kts | 85° |
| 2026-05-05 05:14 | 35.09159 | -80.85212 | 6666 ft | 295 kts | 58° |
| 2026-05-05 05:15 | 35.10373 | -80.83225 | 7403 ft | 296 kts | 52° |
| 2026-05-05 05:15 | 35.11660 | -80.81265 | 8100 ft | 298 kts | 52° |
| 2026-05-05 05:15 | 35.12952 | -80.79305 | 8743 ft | 301 kts | 52° |
| 2026-05-05 05:15 | 35.14277 | -80.77298 | 9431 ft | 303 kts | 52° |
| 2026-05-05 05:16 | 35.15606 | -80.75282 | 9905 ft | 308 kts | 52° |
| 2026-05-05 05:16 | 35.16954 | -80.73237 | 9980 ft | 311 kts | 52° |
| 2026-05-05 05:16 | 35.18337 | -80.71137 | 10282 ft | 326 kts | 52° |
| 2026-05-05 05:16 | 35.19796 | -80.68920 | 10609 ft | 340 kts | 51° |
| 2026-05-05 05:17 | 35.21300 | -80.66636 | 11195 ft | 346 kts | 51° |
| 2026-05-05 05:17 | 35.22797 | -80.64359 | 11878 ft | 347 kts | 51° |
| 2026-05-05 05:17 | 35.24306 | -80.62065 | 12534 ft | 350 kts | 51° |
| 2026-05-05 05:17 | 35.25841 | -80.59729 | 13221 ft | 352 kts | 51° |
| 2026-05-05 05:18 | 35.27375 | -80.57394 | 13866 ft | 355 kts | 51° |
| 2026-05-05 05:18 | 35.28930 | -80.55027 | 14446 ft | 359 kts | 50° |
| 2026-05-05 05:18 | 35.30492 | -80.52647 | 15013 ft | 364 kts | 50° |
| 2026-05-05 05:18 | 35.32075 | -80.50218 | 15623 ft | 367 kts | 53° |
| 2026-05-05 05:19 | 35.33367 | -80.47494 | 16192 ft | 371 kts | 66° |
| 2026-05-05 05:19 | 35.34297 | -80.44572 | 16720 ft | 376 kts | 69° |
| 2026-05-05 05:19 | 35.35204 | -80.41555 | 17256 ft | 380 kts | 69° |
| 2026-05-05 05:19 | 35.36122 | -80.38504 | 17775 ft | 384 kts | 69° |
| 2026-05-05 05:20 | 35.37054 | -80.35418 | 18284 ft | 388 kts | 68° |
| 2026-05-05 05:20 | 35.37986 | -80.32334 | 18815 ft | 391 kts | 69° |
| 2026-05-05 05:20 | 35.38933 | -80.29199 | 19328 ft | 395 kts | 69° |
| 2026-05-05 05:20 | 35.39887 | -80.26044 | 19855 ft | 397 kts | 69° |
| 2026-05-05 05:21 | 35.40848 | -80.22860 | 20356 ft | 400 kts | 69° |
| 2026-05-05 05:21 | 35.41816 | -80.19655 | 20852 ft | 403 kts | 69° |
| 2026-05-05 05:21 | 35.42788 | -80.16431 | 21334 ft | 406 kts | 69° |
| 2026-05-05 05:21 | 35.43784 | -80.13152 | 21849 ft | 409 kts | 69° |
| 2026-05-05 05:22 | 35.44772 | -80.09925 | 22307 ft | 412 kts | 69° |
| 2026-05-05 05:22 | 35.45790 | -80.06601 | 22764 ft | 415 kts | 69° |
| 2026-05-05 05:22 | 35.46800 | -80.03297 | 23223 ft | 418 kts | 69° |
| 2026-05-05 05:22 | 35.47821 | -79.99950 | 23665 ft | 421 kts | 69° |
| 2026-05-05 05:23 | 35.48844 | -79.96596 | 24082 ft | 424 kts | 69° |
| 2026-05-05 05:23 | 35.49878 | -79.93200 | 24513 ft | 427 kts | 68° |
| 2026-05-05 05:23 | 35.50911 | -79.89804 | 24913 ft | 430 kts | 68° |
| 2026-05-05 05:23 | 35.51959 | -79.86352 | 25332 ft | 432 kts | 68° |
| 2026-05-05 05:24 | 35.52996 | -79.82932 | 25740 ft | 434 kts | 68° |
| 2026-05-05 05:24 | 35.54064 | -79.79458 | 26150 ft | 436 kts | 68° |
| 2026-05-05 05:24 | 35.55164 | -79.75952 | 26525 ft | 439 kts | 67° |
| 2026-05-05 05:24 | 35.56255 | -79.72473 | 26876 ft | 442 kts | 67° |
| 2026-05-05 05:25 | 35.57361 | -79.68940 | 27229 ft | 445 kts | 68° |
| 2026-05-05 05:25 | 35.58462 | -79.65416 | 27588 ft | 447 kts | 67° |
| 2026-05-05 05:25 | 35.59575 | -79.61849 | 27928 ft | 449 kts | 67° |
| 2026-05-05 05:25 | 35.60691 | -79.58267 | 28259 ft | 451 kts | 67° |
| 2026-05-05 05:26 | 35.61817 | -79.54645 | 28594 ft | 453 kts | 67° |
| 2026-05-05 05:26 | 35.62944 | -79.51015 | 28912 ft | 456 kts | 67° |
| 2026-05-05 05:26 | 35.64075 | -79.47370 | 29223 ft | 458 kts | 67° |
| 2026-05-05 05:26 | 35.65224 | -79.43662 | 29533 ft | 460 kts | 67° |
| 2026-05-05 05:27 | 35.66381 | -79.39921 | 29834 ft | 462 kts | 67° |
| 2026-05-05 05:27 | 35.67515 | -79.36249 | 30131 ft | 464 kts | 67° |
| 2026-05-05 05:27 | 35.70216 | -79.28944 | 30614 ft | 465 kts | 55° |
| 2026-05-05 05:28 | 35.72156 | -79.25784 | 30835 ft | 465 kts | 45° |
| 2026-05-05 05:28 | 35.74471 | -79.23048 | 31087 ft | 462 kts | 36° |
| 2026-05-05 05:28 | 35.77050 | -79.20639 | 31364 ft | 462 kts | 33° |
| 2026-05-05 05:28 | 35.79662 | -79.18279 | 31637 ft | 464 kts | 33° |
| 2026-05-05 05:29 | 35.82260 | -79.15926 | 31927 ft | 465 kts | 33° |
| 2026-05-05 05:29 | 35.84859 | -79.13563 | 32197 ft | 467 kts | 33° |
| 2026-05-05 05:29 | 35.87469 | -79.11182 | 32437 ft | 469 kts | 33° |
| 2026-05-05 05:29 | 35.90115 | -79.08763 | 32672 ft | 471 kts | 33° |
| 2026-05-05 05:30 | 35.92723 | -79.06374 | 32918 ft | 473 kts | 33° |
| 2026-05-05 05:30 | 35.95401 | -79.03916 | 33177 ft | 475 kts | 32° |
| 2026-05-05 05:30 | 35.98029 | -79.01500 | 33432 ft | 476 kts | 32° |
| 2026-05-05 05:30 | 36.00709 | -78.99034 | 33667 ft | 478 kts | 32° |
| 2026-05-05 05:31 | 36.03352 | -78.96600 | 33911 ft | 480 kts | 32° |
| 2026-05-05 05:31 | 36.06030 | -78.94129 | 34150 ft | 481 kts | 32° |
| 2026-05-05 05:31 | 36.08701 | -78.91663 | 34389 ft | 483 kts | 32° |
| 2026-05-05 05:31 | 36.11396 | -78.89172 | 34614 ft | 485 kts | 32° |
| 2026-05-05 05:32 | 36.14104 | -78.86667 | 34801 ft | 487 kts | 32° |
| 2026-05-05 05:32 | 36.16847 | -78.84127 | 34972 ft | 489 kts | 32° |
| 2026-05-05 05:32 | 36.22429 | -78.79374 | 35034 ft | 488 kts | 26° |
| 2026-05-05 05:33 | 36.28291 | -78.75118 | 35035 ft | 488 kts | 25° |
| 2026-05-05 05:33 | 36.34110 | -78.70892 | 35024 ft | 486 kts | 25° |
| 2026-05-05 05:34 | 36.39976 | -78.66621 | 35025 ft | 487 kts | 25° |
| 2026-05-05 05:34 | 36.45836 | -78.62344 | 35026 ft | 487 kts | 25° |
| 2026-05-05 05:35 | 36.51690 | -78.58062 | 35025 ft | 486 kts | 25° |
| 2026-05-05 05:35 | 36.57520 | -78.53790 | 35018 ft | 486 kts | 25° |
| 2026-05-05 05:36 | 36.63363 | -78.49501 | 35014 ft | 487 kts | 25° |
| 2026-05-05 05:36 | 36.69180 | -78.45222 | 35017 ft | 486 kts | 25° |
| 2026-05-05 05:37 | 36.75000 | -78.40934 | 35020 ft | 487 kts | 25° |
| 2026-05-05 05:37 | 36.80794 | -78.36657 | 35017 ft | 487 kts | 25° |
| 2026-05-05 05:38 | 36.86634 | -78.32338 | 35002 ft | 488 kts | 26° |
| 2026-05-05 05:38 | 36.92448 | -78.28031 | 34993 ft | 488 kts | 26° |
| 2026-05-05 05:39 | 36.98289 | -78.23695 | 34990 ft | 487 kts | 26° |
| 2026-05-05 05:39 | 37.04111 | -78.19367 | 34983 ft | 486 kts | 26° |
| 2026-05-05 05:40 | 37.09919 | -78.15041 | 34986 ft | 487 kts | 26° |
| 2026-05-05 05:40 | 37.15673 | -78.10748 | 34985 ft | 487 kts | 26° |
| 2026-05-05 05:41 | 37.21457 | -78.06425 | 34985 ft | 488 kts | 26° |
| 2026-05-05 05:41 | 37.27307 | -78.02043 | 34981 ft | 487 kts | 26° |
| 2026-05-05 05:42 | 37.33130 | -77.97675 | 34980 ft | 486 kts | 26° |
| 2026-05-05 05:42 | 37.38902 | -77.93336 | 34979 ft | 486 kts | 26° |
| 2026-05-05 05:43 | 37.44695 | -77.88974 | 34978 ft | 486 kts | 26° |
| 2026-05-05 05:43 | 37.50497 | -77.84596 | 34966 ft | 477 kts | 27° |
| 2026-05-05 05:44 | 37.55590 | -77.79524 | 34974 ft | 466 kts | 38° |
| 2026-05-05 05:44 | 37.60374 | -77.73901 | 34970 ft | 476 kts | 39° |
| 2026-05-05 05:45 | 37.65232 | -77.68160 | 34975 ft | 485 kts | 39° |
| 2026-05-05 05:45 | 37.70202 | -77.62266 | 34978 ft | 494 kts | 39° |
| 2026-05-05 05:46 | 37.75179 | -77.56348 | 34979 ft | 493 kts | 39° |
| 2026-05-05 05:46 | 37.80165 | -77.50407 | 34981 ft | 492 kts | 39° |
| 2026-05-05 05:47 | 37.85142 | -77.44463 | 34980 ft | 492 kts | 39° |
| 2026-05-05 05:47 | 37.90099 | -77.38533 | 34971 ft | 492 kts | 39° |
| 2026-05-05 05:48 | 37.95076 | -77.32566 | 34958 ft | 492 kts | 40° |
| 2026-05-05 05:48 | 38.00032 | -77.26614 | 34959 ft | 490 kts | 40° |
| 2026-05-05 05:49 | 38.04999 | -77.20635 | 34961 ft | 492 kts | 40° |
| 2026-05-05 05:49 | 38.09921 | -77.14700 | 34956 ft | 490 kts | 40° |
| 2026-05-05 05:50 | 38.14893 | -77.08693 | 34950 ft | 489 kts | 40° |
| 2026-05-05 05:50 | 38.19820 | -77.02728 | 34949 ft | 490 kts | 41° |
| 2026-05-05 05:51 | 38.24746 | -76.96753 | 34947 ft | 489 kts | 40° |
| 2026-05-05 05:51 | 38.29650 | -76.90793 | 34943 ft | 488 kts | 41° |
| 2026-05-05 05:52 | 38.34562 | -76.84811 | 34961 ft | 488 kts | 40° |
| 2026-05-05 05:52 | 38.39454 | -76.78841 | 34937 ft | 488 kts | 41° |
| 2026-05-05 05:53 | 38.44336 | -76.72873 | 34945 ft | 487 kts | 41° |
| 2026-05-05 05:53 | 38.49211 | -76.66901 | 34939 ft | 487 kts | 41° |
| 2026-05-05 05:54 | 38.54112 | -76.60886 | 34934 ft | 487 kts | 41° |
| 2026-05-05 05:54 | 38.58973 | -76.54906 | 34931 ft | 486 kts | 41° |
| 2026-05-05 05:55 | 38.63830 | -76.48921 | 34932 ft | 484 kts | 41° |
| 2026-05-05 05:55 | 38.68652 | -76.42967 | 34928 ft | 482 kts | 41° |
| 2026-05-05 05:56 | 38.73463 | -76.37015 | 34931 ft | 482 kts | 41° |
| 2026-05-05 05:56 | 38.78287 | -76.31034 | 34923 ft | 482 kts | 42° |
| 2026-05-05 05:57 | 38.83086 | -76.25075 | 34930 ft | 482 kts | 42° |
| 2026-05-05 05:57 | 38.87880 | -76.19108 | 34936 ft | 481 kts | 42° |
| 2026-05-05 05:58 | 38.92681 | -76.13120 | 34945 ft | 481 kts | 42° |
| 2026-05-05 05:58 | 38.97477 | -76.07127 | 34925 ft | 481 kts | 41° |
| 2026-05-05 05:59 | 39.02258 | -76.01143 | 34923 ft | 480 kts | 42° |
| 2026-05-05 05:59 | 39.07062 | -75.95115 | 34917 ft | 480 kts | 42° |
| 2026-05-05 06:00 | 39.11827 | -75.89125 | 34922 ft | 480 kts | 42° |
| 2026-05-05 06:00 | 39.16618 | -75.83090 | 34916 ft | 479 kts | 42° |
| 2026-05-05 06:01 | 39.21352 | -75.77116 | 34919 ft | 479 kts | 42° |
| 2026-05-05 06:01 | 39.26107 | -75.71104 | 34918 ft | 478 kts | 42° |
| 2026-05-05 06:02 | 39.30877 | -75.65059 | 34916 ft | 479 kts | 42° |
| 2026-05-05 06:02 | 39.35632 | -75.59022 | 34930 ft | 479 kts | 42° |
| 2026-05-05 06:03 | 39.40369 | -75.52994 | 34932 ft | 479 kts | 42° |
| 2026-05-05 06:03 | 39.45122 | -75.46935 | 34936 ft | 479 kts | 42° |
| 2026-05-05 06:04 | 39.49881 | -75.40856 | 34937 ft | 479 kts | 42° |
| 2026-05-05 06:04 | 39.54623 | -75.34785 | 34932 ft | 477 kts | 43° |
| 2026-05-05 06:05 | 39.59321 | -75.28760 | 34918 ft | 477 kts | 43° |
| 2026-05-05 06:05 | 39.64028 | -75.22710 | 34918 ft | 475 kts | 43° |
| 2026-05-05 06:06 | 39.68738 | -75.16645 | 34927 ft | 475 kts | 43° |
| 2026-05-05 06:06 | 39.73395 | -75.10635 | 34912 ft | 473 kts | 43° |
| 2026-05-05 06:07 | 39.78062 | -75.04600 | 34920 ft | 473 kts | 43° |
| 2026-05-05 06:07 | 39.82700 | -74.98590 | 34926 ft | 469 kts | 43° |
| 2026-05-05 06:08 | 39.87298 | -74.92622 | 34920 ft | 469 kts | 43° |
| 2026-05-05 06:08 | 39.91927 | -74.86601 | 34925 ft | 470 kts | 43° |
| 2026-05-05 06:09 | 39.96529 | -74.80602 | 34926 ft | 469 kts | 43° |
| 2026-05-05 06:09 | 40.01132 | -74.74590 | 34918 ft | 471 kts | 43° |
| 2026-05-05 06:10 | 40.05751 | -74.68543 | 34914 ft | 470 kts | 43° |
| 2026-05-05 06:10 | 40.10376 | -74.62478 | 34914 ft | 468 kts | 43° |
| 2026-05-05 06:11 | 40.14978 | -74.56431 | 34917 ft | 469 kts | 43° |
| 2026-05-05 06:11 | 40.19243 | -74.49972 | 34916 ft | 474 kts | 55° |
| 2026-05-05 06:12 | 40.22022 | -74.42174 | 34916 ft | 479 kts | 68° |
| 2026-05-05 06:12 | 40.24272 | -74.33925 | 34917 ft | 479 kts | 69° |
| 2026-05-05 06:13 | 40.26431 | -74.25844 | 34913 ft | 480 kts | 69° |
| 2026-05-05 06:13 | 40.28618 | -74.17565 | 34922 ft | 480 kts | 69° |
| 2026-05-05 06:14 | 40.30772 | -74.09352 | 34926 ft | 479 kts | 69° |
| 2026-05-05 06:14 | 40.32928 | -74.01083 | 34917 ft | 479 kts | 69° |
| 2026-05-05 06:15 | 40.35066 | -73.92849 | 34913 ft | 480 kts | 69° |
| 2026-05-05 06:15 | 40.37215 | -73.84555 | 34923 ft | 482 kts | 69° |
| 2026-05-05 06:16 | 40.39348 | -73.76296 | 34922 ft | 482 kts | 69° |
| 2026-05-05 06:16 | 40.41495 | -73.67947 | 34924 ft | 483 kts | 69° |
| 2026-05-05 06:17 | 40.43630 | -73.59619 | 34921 ft | 483 kts | 69° |
| 2026-05-05 06:17 | 40.45756 | -73.51292 | 34925 ft | 483 kts | 69° |
| 2026-05-05 06:18 | 40.47889 | -73.42896 | 34923 ft | 483 kts | 69° |
| 2026-05-05 06:18 | 40.49995 | -73.34584 | 34928 ft | 483 kts | 70° |
| 2026-05-05 06:19 | 40.52109 | -73.26206 | 34925 ft | 485 kts | 70° |
| 2026-05-05 06:19 | 40.54212 | -73.17844 | 34926 ft | 484 kts | 70° |
| 2026-05-05 06:20 | 40.56314 | -73.09459 | 34926 ft | 483 kts | 70° |
| 2026-05-05 06:20 | 40.58405 | -73.01085 | 34933 ft | 484 kts | 70° |
| 2026-05-05 06:21 | 40.60499 | -72.92673 | 34921 ft | 483 kts | 70° |
| 2026-05-05 06:21 | 40.62592 | -72.84234 | 34935 ft | 486 kts | 70° |
| 2026-05-05 06:22 | 40.64674 | -72.75808 | 34927 ft | 485 kts | 70° |
| 2026-05-05 06:22 | 40.66756 | -72.67354 | 34928 ft | 484 kts | 70° |
| 2026-05-05 06:23 | 40.68804 | -72.58904 | 34928 ft | 485 kts | 73° |
| 2026-05-05 06:23 | 40.70176 | -72.50224 | 34938 ft | 488 kts | 77° |
| 2026-05-05 06:24 | 40.71449 | -72.41464 | 34935 ft | 486 kts | 77° |
| 2026-05-05 06:24 | 40.72707 | -72.32767 | 34941 ft | 488 kts | 78° |
| 2026-05-05 06:25 | 40.73971 | -72.23985 | 34937 ft | 488 kts | 77° |
| 2026-05-05 06:25 | 40.75229 | -72.15197 | 34938 ft | 489 kts | 77° |
| 2026-05-05 06:26 | 40.76485 | -72.06377 | 34935 ft | 489 kts | 78° |
| 2026-05-05 06:26 | 40.77729 | -71.97592 | 34928 ft | 490 kts | 77° |
| 2026-05-05 06:27 | 40.79579 | -71.84429 | 34944 ft | 489 kts | 78° |
| 2026-05-05 06:28 | 40.80803 | -71.75658 | 34949 ft | 487 kts | 78° |
| 2026-05-05 06:28 | 40.82019 | -71.66888 | 34952 ft | 489 kts | 78° |
| 2026-05-05 06:29 | 40.83234 | -71.58083 | 34948 ft | 489 kts | 78° |
| 2026-05-05 06:29 | 40.84440 | -71.49286 | 34957 ft | 490 kts | 78° |
| 2026-05-05 06:30 | 40.85648 | -71.40424 | 34948 ft | 490 kts | 77° |
| 2026-05-05 06:30 | 40.86840 | -71.31632 | 34942 ft | 489 kts | 78° |
| 2026-05-05 06:31 | 40.88030 | -71.22794 | 34952 ft | 491 kts | 78° |
| 2026-05-05 06:31 | 40.89212 | -71.13963 | 34957 ft | 490 kts | 78° |
| 2026-05-05 06:32 | 40.90391 | -71.05106 | 34945 ft | 488 kts | 78° |
| 2026-05-05 06:32 | 40.91559 | -70.96275 | 34960 ft | 489 kts | 78° |
| 2026-05-05 06:33 | 40.92715 | -70.87482 | 34960 ft | 489 kts | 78° |
| 2026-05-05 06:33 | 40.93870 | -70.78643 | 34958 ft | 489 kts | 78° |
| 2026-05-05 06:34 | 40.95020 | -70.69779 | 34959 ft | 488 kts | 78° |
| 2026-05-05 06:34 | 40.96158 | -70.60966 | 34962 ft | 488 kts | 78° |
| 2026-05-05 06:35 | 40.97290 | -70.52132 | 34966 ft | 488 kts | 78° |
| 2026-05-05 06:35 | 40.98418 | -70.43282 | 34971 ft | 489 kts | 78° |
| 2026-05-05 06:36 | 40.99538 | -70.34430 | 34984 ft | 488 kts | 78° |
| 2026-05-05 06:36 | 41.00650 | -70.25597 | 34976 ft | 489 kts | 78° |
| 2026-05-05 06:37 | 41.01751 | -70.16787 | 34972 ft | 487 kts | 78° |
| 2026-05-05 06:37 | 41.02848 | -70.07954 | 34966 ft | 487 kts | 78° |
| 2026-05-05 06:38 | 41.03931 | -69.99174 | 34962 ft | 483 kts | 78° |
| 2026-05-05 06:38 | 41.05005 | -69.90412 | 34965 ft | 486 kts | 78° |
| 2026-05-05 06:39 | 41.06086 | -69.81542 | 34972 ft | 487 kts | 78° |
| 2026-05-05 06:39 | 41.07746 | -69.72940 | 34973 ft | 481 kts | 63° |
| 2026-05-05 06:40 | 41.10877 | -69.65229 | 34975 ft | 478 kts | 56° |
| 2026-05-05 06:40 | 41.14150 | -69.57673 | 34987 ft | 479 kts | 56° |
| 2026-05-05 06:41 | 41.17429 | -69.50047 | 34991 ft | 477 kts | 56° |
| 2026-05-05 06:41 | 41.20697 | -69.42405 | 34999 ft | 477 kts | 56° |
| 2026-05-05 06:42 | 41.23955 | -69.34754 | 35000 ft | 478 kts | 57° |
| 2026-05-05 06:42 | 41.27213 | -69.27078 | 34995 ft | 478 kts | 57° |
| 2026-05-05 06:43 | 41.30461 | -69.19400 | 34997 ft | 477 kts | 57° |
| 2026-05-05 06:43 | 41.33698 | -69.11729 | 35001 ft | 479 kts | 57° |
| 2026-05-05 06:44 | 41.36948 | -69.04006 | 35007 ft | 479 kts | 57° |
| 2026-05-05 06:44 | 41.40187 | -68.96285 | 35002 ft | 478 kts | 57° |
| 2026-05-05 06:45 | 41.43424 | -68.88554 | 35007 ft | 479 kts | 57° |
| 2026-05-05 06:45 | 41.46652 | -68.80821 | 35007 ft | 480 kts | 57° |
| 2026-05-05 06:46 | 41.49877 | -68.73077 | 35001 ft | 481 kts | 57° |
| 2026-05-05 06:46 | 41.53107 | -68.65299 | 35006 ft | 480 kts | 57° |
| 2026-05-05 06:47 | 41.56327 | -68.57525 | 35005 ft | 479 kts | 57° |
| 2026-05-05 06:47 | 41.59537 | -68.49757 | 35004 ft | 480 kts | 57° |
| 2026-05-05 06:48 | 41.62756 | -68.41944 | 35001 ft | 479 kts | 56° |
| 2026-05-05 06:48 | 41.65937 | -68.34203 | 35003 ft | 480 kts | 57° |
| 2026-05-05 06:49 | 41.69141 | -68.26386 | 34995 ft | 479 kts | 57° |
| 2026-05-05 06:49 | 41.72344 | -68.18552 | 35002 ft | 481 kts | 57° |
| 2026-05-05 06:50 | 41.75534 | -68.10728 | 34999 ft | 480 kts | 57° |
| 2026-05-05 06:50 | 41.78722 | -68.02888 | 34998 ft | 482 kts | 57° |
| 2026-05-05 06:51 | 41.81903 | -67.95044 | 35003 ft | 481 kts | 57° |
| 2026-05-05 06:51 | 41.85081 | -67.87186 | 34995 ft | 480 kts | 57° |
| 2026-05-05 06:52 | 41.88249 | -67.79331 | 35000 ft | 480 kts | 57° |
| 2026-05-05 06:52 | 41.91413 | -67.71467 | 34991 ft | 481 kts | 57° |
| 2026-05-05 06:53 | 41.94569 | -67.63602 | 34997 ft | 480 kts | 57° |
| 2026-05-05 06:53 | 41.97726 | -67.55708 | 34993 ft | 478 kts | 57° |
| 2026-05-05 06:54 | 42.00866 | -67.47843 | 34995 ft | 479 kts | 56° |
| 2026-05-05 06:54 | 42.04004 | -67.39958 | 34995 ft | 479 kts | 57° |
| 2026-05-05 06:55 | 42.07130 | -67.32082 | 34989 ft | 480 kts | 57° |
| 2026-05-05 06:55 | 42.10260 | -67.24173 | 34996 ft | 480 kts | 57° |
| 2026-05-05 06:56 | 42.13382 | -67.16266 | 34990 ft | 480 kts | 57° |
| 2026-05-05 06:56 | 42.16496 | -67.08354 | 35003 ft | 480 kts | 57° |
| 2026-05-05 06:57 | 42.19566 | -67.00350 | 35007 ft | 483 kts | 62° |
| 2026-05-05 06:57 | 42.21938 | -66.91823 | 35000 ft | 487 kts | 65° |
| 2026-05-05 06:58 | 42.24213 | -66.83270 | 35007 ft | 486 kts | 65° |
| 2026-05-05 06:58 | 42.26469 | -66.74745 | 35009 ft | 486 kts | 65° |
| 2026-05-05 06:59 | 42.28733 | -66.66154 | 35022 ft | 485 kts | 65° |
| 2026-05-05 06:59 | 42.30972 | -66.57626 | 35012 ft | 485 kts | 65° |
| 2026-05-05 07:00 | 42.33202 | -66.49098 | 35023 ft | 483 kts | 65° |
| 2026-05-05 07:00 | 42.35433 | -66.40543 | 35018 ft | 485 kts | 65° |
| 2026-05-05 07:01 | 42.37659 | -66.31969 | 35013 ft | 483 kts | 66° |
| 2026-05-05 07:01 | 42.39863 | -66.23449 | 35024 ft | 483 kts | 65° |
| 2026-05-05 07:02 | 42.42070 | -66.14891 | 35015 ft | 485 kts | 66° |
| 2026-05-05 07:02 | 42.44274 | -66.06306 | 35018 ft | 482 kts | 65° |
| 2026-05-05 07:03 | 42.46465 | -65.97746 | 35021 ft | 482 kts | 65° |
| 2026-05-05 07:03 | 42.48653 | -65.89166 | 35011 ft | 482 kts | 65° |
| 2026-05-05 07:04 | 42.50818 | -65.80647 | 35021 ft | 483 kts | 65° |
| 2026-05-05 07:04 | 42.53005 | -65.72011 | 35022 ft | 483 kts | 65° |
| 2026-05-05 07:05 | 42.55175 | -65.63406 | 35024 ft | 483 kts | 65° |
| 2026-05-05 07:05 | 42.57335 | -65.54812 | 35019 ft | 485 kts | 65° |
| 2026-05-05 07:06 | 42.59484 | -65.46229 | 35028 ft | 483 kts | 65° |
| 2026-05-05 07:06 | 42.61649 | -65.37553 | 35028 ft | 485 kts | 65° |
| 2026-05-05 07:07 | 42.63792 | -65.28929 | 35017 ft | 486 kts | 66° |
| 2026-05-05 07:07 | 42.65939 | -65.20258 | 35031 ft | 485 kts | 66° |
| 2026-05-05 07:08 | 42.68061 | -65.11658 | 35003 ft | 485 kts | 66° |
| 2026-05-05 07:08 | 42.70194 | -65.02979 | 35026 ft | 485 kts | 66° |
| 2026-05-05 07:09 | 42.72319 | -64.94300 | 35020 ft | 486 kts | 66° |
| 2026-05-05 07:09 | 42.74442 | -64.85600 | 35021 ft | 486 kts | 66° |
| 2026-05-05 07:10 | 42.76573 | -64.76832 | 35024 ft | 489 kts | 66° |
| 2026-05-05 07:10 | 42.78677 | -64.68138 | 35013 ft | 488 kts | 66° |
| 2026-05-05 07:11 | 42.80797 | -64.59350 | 35014 ft | 489 kts | 66° |
| 2026-05-05 07:11 | 42.82899 | -64.50600 | 35018 ft | 489 kts | 66° |
| 2026-05-05 07:12 | 42.85015 | -64.41760 | 35017 ft | 492 kts | 66° |
| 2026-05-05 07:12 | 42.87110 | -64.32969 | 35013 ft | 491 kts | 67° |
| 2026-05-05 07:13 | 42.89208 | -64.24132 | 35012 ft | 490 kts | 67° |
| 2026-05-05 07:13 | 42.91302 | -64.15278 | 35006 ft | 492 kts | 67° |
| 2026-05-05 07:14 | 42.93389 | -64.06418 | 35007 ft | 493 kts | 67° |
| 2026-05-05 07:14 | 42.95480 | -63.97510 | 35003 ft | 492 kts | 68° |
| 2026-05-05 07:15 | 42.97559 | -63.88614 | 35011 ft | 493 kts | 68° |
| 2026-05-05 07:15 | 42.99632 | -63.79709 | 35015 ft | 496 kts | 68° |
| 2026-05-05 07:16 | 43.01714 | -63.70730 | 35010 ft | 497 kts | 68° |
| 2026-05-05 07:16 | 43.03785 | -63.61762 | 35016 ft | 498 kts | 68° |
| 2026-05-05 07:17 | 43.05859 | -63.52742 | 35021 ft | 499 kts | 68° |
| 2026-05-05 07:17 | 43.07927 | -63.43714 | 35010 ft | 498 kts | 68° |
| 2026-05-05 07:18 | 43.09993 | -63.34654 | 35018 ft | 498 kts | 69° |
| 2026-05-05 07:18 | 43.12062 | -63.25550 | 35028 ft | 504 kts | 69° |
| 2026-05-05 07:19 | 43.14118 | -63.16457 | 35021 ft | 503 kts | 69° |
| 2026-05-05 07:19 | 43.16181 | -63.07301 | 35025 ft | 504 kts | 70° |
| 2026-05-05 07:20 | 43.18228 | -62.98174 | 35031 ft | 506 kts | 70° |
| 2026-05-05 07:20 | 43.20274 | -62.89014 | 35039 ft | 505 kts | 70° |
| 2026-05-05 07:21 | 43.22310 | -62.79863 | 35036 ft | 507 kts | 70° |
| 2026-05-05 07:21 | 43.24349 | -62.70651 | 35038 ft | 506 kts | 70° |
| 2026-05-05 07:22 | 43.26391 | -62.61394 | 35036 ft | 509 kts | 70° |
| 2026-05-05 07:22 | 43.28423 | -62.52135 | 35033 ft | 507 kts | 70° |
| 2026-05-05 07:23 | 43.30443 | -62.42897 | 35032 ft | 507 kts | 70° |
| 2026-05-05 07:23 | 43.32457 | -62.33648 | 35031 ft | 510 kts | 71° |
| 2026-05-05 07:24 | 43.34479 | -62.24315 | 35031 ft | 512 kts | 71° |
| 2026-05-05 07:24 | 43.36489 | -62.14995 | 35020 ft | 511 kts | 71° |
| 2026-05-05 07:25 | 43.38502 | -62.05624 | 35034 ft | 512 kts | 71° |
| 2026-05-05 07:25 | 43.40499 | -61.96286 | 35034 ft | 513 kts | 71° |
| 2026-05-05 07:26 | 43.42493 | -61.86918 | 35038 ft | 511 kts | 71° |
| 2026-05-05 07:26 | 43.44473 | -61.77576 | 35027 ft | 514 kts | 71° |
| 2026-05-05 07:27 | 43.46463 | -61.68147 | 35029 ft | 512 kts | 71° |
| 2026-05-05 07:27 | 43.48431 | -61.58775 | 35028 ft | 514 kts | 71° |
| 2026-05-05 07:28 | 43.50409 | -61.49315 | 35029 ft | 516 kts | 71° |
| 2026-05-05 07:28 | 43.52385 | -61.39814 | 35035 ft | 516 kts | 71° |
| 2026-05-05 07:29 | 43.54357 | -61.30297 | 35022 ft | 518 kts | 72° |
| 2026-05-05 07:29 | 43.56323 | -61.20763 | 35018 ft | 519 kts | 72° |
| 2026-05-05 07:30 | 43.58277 | -61.11236 | 35025 ft | 520 kts | 72° |
| 2026-05-05 07:30 | 43.61201 | -60.96906 | 35023 ft | 522 kts | 72° |
| 2026-05-05 07:31 | 43.63157 | -60.87262 | 35023 ft | 521 kts | 73° |
| 2026-05-05 07:31 | 43.65097 | -60.77646 | 35031 ft | 521 kts | 73° |
| 2026-05-05 07:32 | 43.67027 | -60.68037 | 35020 ft | 524 kts | 73° |
| 2026-05-05 07:32 | 43.68961 | -60.58359 | 35031 ft | 527 kts | 73° |
| 2026-05-05 07:33 | 43.70903 | -60.48596 | 35025 ft | 527 kts | 73° |
| 2026-05-05 07:33 | 43.72826 | -60.38883 | 35020 ft | 528 kts | 73° |
| 2026-05-05 07:34 | 43.74753 | -60.29098 | 35016 ft | 531 kts | 74° |
| 2026-05-05 07:34 | 43.76681 | -60.19257 | 35017 ft | 531 kts | 74° |
| 2026-05-05 07:35 | 43.78598 | -60.09425 | 35016 ft | 532 kts | 75° |
| 2026-05-05 07:35 | 43.80506 | -59.99589 | 35024 ft | 531 kts | 75° |
| 2026-05-05 07:36 | 43.82407 | -59.89745 | 35003 ft | 532 kts | 75° |
| 2026-05-05 07:36 | 43.84298 | -59.79896 | 35016 ft | 535 kts | 75° |
| 2026-05-05 07:37 | 43.86193 | -59.69976 | 35005 ft | 535 kts | 75° |
| 2026-05-05 07:37 | 43.88092 | -59.59983 | 35020 ft | 535 kts | 75° |
| 2026-05-05 07:38 | 43.89980 | -59.50001 | 35016 ft | 538 kts | 75° |
| 2026-05-05 07:38 | 43.91855 | -59.40029 | 35026 ft | 536 kts | 75° |
| 2026-05-05 07:39 | 43.93723 | -59.30046 | 35006 ft | 539 kts | 76° |
| 2026-05-05 07:39 | 43.95591 | -59.20010 | 35003 ft | 540 kts | 76° |
| 2026-05-05 07:40 | 43.97461 | -59.09910 | 35002 ft | 539 kts | 76° |
| 2026-05-05 07:40 | 43.99303 | -58.99903 | 35004 ft | 541 kts | 76° |
| 2026-05-05 07:41 | 44.01145 | -58.89845 | 34997 ft | 540 kts | 76° |
| 2026-05-05 07:41 | 44.02985 | -58.79742 | 35014 ft | 542 kts | 76° |
| 2026-05-05 07:42 | 44.04820 | -58.69608 | 35018 ft | 543 kts | 76° |
| 2026-05-05 07:42 | 44.06651 | -58.59447 | 35023 ft | 543 kts | 77° |
| 2026-05-05 07:43 | 44.08469 | -58.49301 | 35020 ft | 543 kts | 77° |
| 2026-05-05 07:43 | 44.10285 | -58.39103 | 35012 ft | 545 kts | 76° |
| 2026-05-05 07:44 | 44.12097 | -58.28876 | 34998 ft | 547 kts | 77° |
| 2026-05-05 07:44 | 44.13903 | -58.18622 | 35003 ft | 547 kts | 77° |
| 2026-05-05 07:45 | 44.15697 | -58.08384 | 34998 ft | 546 kts | 78° |
| 2026-05-05 07:45 | 44.17487 | -57.98101 | 35010 ft | 547 kts | 78° |
| 2026-05-05 07:46 | 44.19251 | -57.87914 | 34999 ft | 549 kts | 77° |
| 2026-05-05 07:46 | 44.21027 | -57.77601 | 35009 ft | 548 kts | 78° |
| 2026-05-05 07:47 | 44.22794 | -57.67271 | 35014 ft | 551 kts | 77° |
| 2026-05-05 07:47 | 44.24544 | -57.56985 | 35015 ft | 551 kts | 77° |
| 2026-05-05 07:48 | 44.26297 | -57.46626 | 35023 ft | 550 kts | 78° |
| 2026-05-05 07:48 | 44.28039 | -57.36263 | 35018 ft | 551 kts | 78° |
| 2026-05-05 07:49 | 44.29777 | -57.25865 | 35017 ft | 552 kts | 78° |
| 2026-05-05 07:49 | 44.31508 | -57.15448 | 35012 ft | 552 kts | 78° |
| 2026-05-05 07:50 | 44.33223 | -57.05060 | 35009 ft | 553 kts | 78° |
| 2026-05-05 07:50 | 44.34940 | -56.94599 | 35011 ft | 553 kts | 79° |
| 2026-05-05 07:51 | 44.36634 | -56.84212 | 35017 ft | 552 kts | 79° |
| 2026-05-05 07:51 | 44.38331 | -56.73746 | 35028 ft | 555 kts | 79° |
| 2026-05-05 07:52 | 44.40021 | -56.63256 | 35015 ft | 554 kts | 79° |
| 2026-05-05 07:52 | 44.41696 | -56.52790 | 35020 ft | 556 kts | 78° |
| 2026-05-05 07:53 | 44.43371 | -56.42266 | 35023 ft | 557 kts | 79° |
| 2026-05-05 07:53 | 44.45034 | -56.31745 | 35003 ft | 555 kts | 80° |
| 2026-05-05 07:54 | 44.46691 | -56.21200 | 35018 ft | 555 kts | 80° |
| 2026-05-05 07:54 | 44.48329 | -56.10686 | 35012 ft | 557 kts | 81° |
| 2026-05-05 07:55 | 44.49623 | -56.00087 | 35007 ft | 555 kts | 83° |
| 2026-05-05 07:55 | 44.50823 | -55.89429 | 35023 ft | 555 kts | 84° |
| 2026-05-05 07:56 | 44.52007 | -55.78737 | 35013 ft | 558 kts | 83° |
| 2026-05-05 07:56 | 44.53173 | -55.68072 | 35025 ft | 558 kts | 84° |
| 2026-05-05 07:57 | 44.54333 | -55.57336 | 35023 ft | 557 kts | 83° |
| 2026-05-05 07:57 | 44.55479 | -55.46623 | 35033 ft | 557 kts | 84° |
| 2026-05-05 07:58 | 44.56611 | -55.35931 | 35025 ft | 559 kts | 84° |
| 2026-05-05 07:58 | 44.57731 | -55.25258 | 35017 ft | 558 kts | 85° |
| 2026-05-05 07:59 | 44.58845 | -55.14526 | 35017 ft | 559 kts | 85° |
| 2026-05-05 07:59 | 44.59953 | -55.03759 | 35019 ft | 557 kts | 85° |
| 2026-05-05 08:00 | 44.61046 | -54.93025 | 35020 ft | 561 kts | 85° |
| 2026-05-05 08:00 | 44.62130 | -54.82296 | 35020 ft | 558 kts | 85° |
| 2026-05-05 08:01 | 44.63207 | -54.71504 | 35022 ft | 562 kts | 85° |
| 2026-05-05 08:01 | 44.64279 | -54.60674 | 35037 ft | 561 kts | 85° |
| 2026-05-05 08:02 | 44.65336 | -54.49893 | 35029 ft | 560 kts | 85° |
| 2026-05-05 08:02 | 44.66379 | -54.39131 | 35043 ft | 563 kts | 85° |
| 2026-05-05 08:03 | 44.67422 | -54.28276 | 35024 ft | 559 kts | 86° |
| 2026-05-05 08:03 | 44.68446 | -54.17499 | 35023 ft | 562 kts | 86° |
| 2026-05-05 08:04 | 44.69466 | -54.06653 | 35035 ft | 562 kts | 86° |
| 2026-05-05 08:04 | 44.70474 | -53.95819 | 35040 ft | 563 kts | 86° |
| 2026-05-05 08:05 | 44.71478 | -53.84927 | 35029 ft | 562 kts | 86° |
| 2026-05-05 08:05 | 44.72463 | -53.74124 | 35038 ft | 563 kts | 86° |
| 2026-05-05 08:06 | 44.73445 | -53.63215 | 35045 ft | 563 kts | 86° |
| 2026-05-05 08:06 | 44.74414 | -53.52348 | 35050 ft | 566 kts | 86° |
| 2026-05-05 08:07 | 44.75377 | -53.41427 | 35057 ft | 566 kts | 86° |
| 2026-05-05 08:07 | 44.76331 | -53.30490 | 35038 ft | 564 kts | 86° |
| 2026-05-05 08:08 | 44.77276 | -53.19531 | 35038 ft | 565 kts | 87° |
| 2026-05-05 08:08 | 44.78210 | -53.08567 | 35061 ft | 565 kts | 86° |
| 2026-05-05 08:09 | 44.79134 | -52.97606 | 35072 ft | 564 kts | 86° |
| 2026-05-05 08:09 | 44.80048 | -52.86629 | 35069 ft | 566 kts | 86° |
| 2026-05-05 08:10 | 44.80949 | -52.75681 | 35084 ft | 566 kts | 88° |
| 2026-05-05 08:10 | 44.81847 | -52.64645 | 35081 ft | 565 kts | 86° |
| 2026-05-05 08:11 | 44.82726 | -52.53682 | 35090 ft | 569 kts | 87° |
| 2026-05-05 08:11 | 44.83602 | -52.42656 | 35086 ft | 568 kts | 88° |
| 2026-05-05 08:12 | 44.84467 | -52.31610 | 35085 ft | 570 kts | 88° |
| 2026-05-05 08:12 | 44.85315 | -52.20659 | 35081 ft | 566 kts | 89° |
| 2026-05-05 08:13 | 44.86158 | -52.09606 | 35080 ft | 568 kts | 88° |
| 2026-05-05 08:13 | 44.86990 | -51.98571 | 35097 ft | 570 kts | 88° |
| 2026-05-05 08:14 | 44.87807 | -51.87605 | 35089 ft | 566 kts | 89° |
| 2026-05-05 08:14 | 44.88620 | -51.76507 | 35097 ft | 568 kts | 88° |
| 2026-05-05 08:15 | 44.89411 | -51.65491 | 35103 ft | 569 kts | 89° |
| 2026-05-05 08:15 | 44.90197 | -51.54373 | 35106 ft | 575 kts | 88° |
| 2026-05-05 08:16 | 44.90978 | -51.43201 | 35106 ft | 573 kts | 89° |
| 2026-05-05 08:16 | 44.91742 | -51.32114 | 35101 ft | 572 kts | 89° |
| 2026-05-05 08:17 | 44.92503 | -51.20882 | 34889 ft | 573 kts | 89° |
| 2026-05-05 08:17 | 44.92873 | -51.15366 | 35056 ft | 574 kts | 89° |
| 2026-05-05 08:17 | 44.93249 | -51.09723 | 35096 ft | 577 kts | 89° |
| 2026-05-05 08:18 | 44.93988 | -50.98500 | 35111 ft | 577 kts | 89° |
| 2026-05-05 08:18 | 44.94718 | -50.87277 | 35117 ft | 571 kts | 90° |
| 2026-05-05 08:19 | 44.95430 | -50.76112 | 35116 ft | 576 kts | 89° |
| 2026-05-05 08:19 | 44.96134 | -50.64926 | 35131 ft | 575 kts | 90° |
| 2026-05-05 08:20 | 44.96828 | -50.53703 | 35117 ft | 576 kts | 89° |
| 2026-05-05 08:20 | 44.97515 | -50.42428 | 35122 ft | 577 kts | 90° |
| 2026-05-05 08:21 | 44.98186 | -50.31222 | 35143 ft | 577 kts | 91° |
| 2026-05-05 08:21 | 44.98854 | -50.19868 | 35131 ft | 579 kts | 91° |
| 2026-05-05 08:22 | 44.99504 | -50.08646 | 35119 ft | 580 kts | 91° |
| 2026-05-05 08:22 | 45.00695 | -49.97357 | 35143 ft | 589 kts | 78° |
| 2026-05-05 08:23 | 45.03310 | -49.86506 | 35148 ft | 591 kts | 72° |
| 2026-05-05 08:23 | 45.06072 | -49.75592 | 35142 ft | 586 kts | 72° |
| 2026-05-05 08:24 | 45.08787 | -49.64755 | 35152 ft | 592 kts | 72° |
| 2026-05-05 08:24 | 45.11519 | -49.53773 | 35140 ft | 591 kts | 72° |
| 2026-05-05 08:25 | 45.14211 | -49.42879 | 35137 ft | 591 kts | 71° |
| 2026-05-05 08:25 | 45.16907 | -49.31906 | 35130 ft | 589 kts | 72° |
| 2026-05-05 08:26 | 45.19588 | -49.20931 | 35123 ft | 592 kts | 72° |
| 2026-05-05 08:26 | 45.22264 | -49.09923 | 35130 ft | 592 kts | 73° |
| 2026-05-05 08:27 | 45.24921 | -48.98935 | 35130 ft | 591 kts | 73° |
| 2026-05-05 08:27 | 45.27562 | -48.87960 | 35139 ft | 591 kts | 72° |
| 2026-05-05 08:28 | 45.30204 | -48.76922 | 35146 ft | 591 kts | 72° |
| 2026-05-05 08:28 | 45.32826 | -48.65916 | 35156 ft | 594 kts | 72° |
| 2026-05-05 08:29 | 45.35442 | -48.54880 | 35154 ft | 590 kts | 73° |
| 2026-05-05 08:30 | 45.39340 | -48.38331 | 35157 ft | 592 kts | 73° |
| 2026-05-05 08:30 | 45.41935 | -48.27243 | 35145 ft | 590 kts | 74° |
| 2026-05-05 08:31 | 45.44496 | -48.16244 | 35151 ft | 594 kts | 73° |
| 2026-05-05 08:31 | 45.47069 | -48.05144 | 35160 ft | 589 kts | 74° |
| 2026-05-05 08:32 | 45.49631 | -47.94027 | 35159 ft | 591 kts | 73° |
| 2026-05-05 08:32 | 45.52159 | -47.83006 | 35169 ft | 590 kts | 73° |
| 2026-05-05 08:33 | 45.54691 | -47.71909 | 35168 ft | 589 kts | 73° |
| 2026-05-05 08:33 | 45.57212 | -47.60804 | 35177 ft | 591 kts | 73° |
| 2026-05-05 08:34 | 45.59724 | -47.49680 | 35180 ft | 590 kts | 74° |
| 2026-05-05 08:34 | 45.62217 | -47.38579 | 35183 ft | 592 kts | 73° |
| 2026-05-05 08:35 | 45.64712 | -47.27418 | 35155 ft | 589 kts | 74° |
| 2026-05-05 08:35 | 45.67204 | -47.16208 | 35163 ft | 594 kts | 75° |
| 2026-05-05 08:36 | 45.69668 | -47.05067 | 35167 ft | 592 kts | 74° |
| 2026-05-05 08:36 | 45.72150 | -46.93785 | 35165 ft | 590 kts | 75° |
| 2026-05-05 08:37 | 45.74597 | -46.82603 | 35174 ft | 593 kts | 74° |
| 2026-05-05 08:37 | 45.77031 | -46.71422 | 35177 ft | 589 kts | 74° |
| 2026-05-05 08:38 | 45.79453 | -46.60227 | 35180 ft | 593 kts | 74° |
| 2026-05-05 08:38 | 45.81881 | -46.48950 | 35192 ft | 594 kts | 75° |
| 2026-05-05 08:39 | 45.84277 | -46.37761 | 35189 ft | 593 kts | 74° |
| 2026-05-05 08:39 | 45.86678 | -46.26492 | 35171 ft | 592 kts | 76° |
| 2026-05-05 08:40 | 45.89071 | -46.15192 | 35186 ft | 593 kts | 75° |
| 2026-05-05 08:40 | 45.91447 | -46.03910 | 35181 ft | 593 kts | 75° |
| 2026-05-05 08:41 | 45.93806 | -45.92648 | 35187 ft | 594 kts | 75° |
| 2026-05-05 08:41 | 45.96159 | -45.81354 | 35186 ft | 594 kts | 75° |
| 2026-05-05 08:42 | 45.98501 | -45.70050 | 35188 ft | 591 kts | 76° |
| 2026-05-05 08:42 | 46.00835 | -45.58720 | 35187 ft | 590 kts | 75° |
| 2026-05-05 08:43 | 46.03137 | -45.47478 | 35193 ft | 594 kts | 75° |
| 2026-05-05 08:43 | 46.05448 | -45.36136 | 35197 ft | 592 kts | 76° |
| 2026-05-05 08:44 | 46.07745 | -45.24790 | 35176 ft | 593 kts | 76° |
| 2026-05-05 08:44 | 46.10034 | -45.13422 | 35176 ft | 594 kts | 76° |
| 2026-05-05 08:45 | 46.12315 | -45.02034 | 35165 ft | 591 kts | 77° |
| 2026-05-05 08:45 | 46.14576 | -44.90670 | 35167 ft | 592 kts | 76° |
| 2026-05-05 08:46 | 46.16817 | -44.79347 | 35171 ft | 591 kts | 76° |
| 2026-05-05 08:46 | 46.19050 | -44.67996 | 35182 ft | 595 kts | 76° |
| 2026-05-05 08:47 | 46.21284 | -44.56576 | 35181 ft | 592 kts | 75° |
| 2026-05-05 08:47 | 46.23513 | -44.45109 | 35186 ft | 592 kts | 76° |
| 2026-05-05 08:48 | 46.25716 | -44.33711 | 35192 ft | 594 kts | 76° |
| 2026-05-05 08:48 | 46.27916 | -44.22268 | 35174 ft | 592 kts | 77° |
| 2026-05-05 08:49 | 46.30109 | -44.10780 | 35178 ft | 594 kts | 77° |
| 2026-05-05 08:49 | 46.32286 | -43.99314 | 35181 ft | 593 kts | 77° |
| 2026-05-05 08:50 | 46.34444 | -43.87876 | 35185 ft | 594 kts | 76° |
| 2026-05-05 08:50 | 46.36597 | -43.76393 | 35187 ft | 594 kts | 77° |
| 2026-05-05 08:51 | 46.38751 | -43.64839 | 35196 ft | 593 kts | 76° |
| 2026-05-05 08:51 | 46.40876 | -43.53366 | 35200 ft | 594 kts | 77° |
| 2026-05-05 08:52 | 46.42989 | -43.41888 | 35206 ft | 591 kts | 76° |
| 2026-05-05 08:52 | 46.45087 | -43.30426 | 35190 ft | 593 kts | 77° |
| 2026-05-05 08:53 | 46.47174 | -43.18945 | 35192 ft | 590 kts | 77° |
| 2026-05-05 08:53 | 46.49258 | -43.07406 | 35199 ft | 591 kts | 77° |
| 2026-05-05 08:54 | 46.51320 | -42.95921 | 35203 ft | 593 kts | 77° |
| 2026-05-05 08:54 | 46.53376 | -42.84398 | 35210 ft | 592 kts | 76° |
| 2026-05-05 08:55 | 46.55416 | -42.72889 | 35209 ft | 590 kts | 77° |
| 2026-05-05 08:55 | 46.57434 | -42.61428 | 35210 ft | 591 kts | 76° |
| 2026-05-05 08:56 | 46.59463 | -42.49831 | 35212 ft | 591 kts | 77° |
| 2026-05-05 08:56 | 46.61457 | -42.38359 | 35217 ft | 593 kts | 76° |
| 2026-05-05 08:57 | 46.63460 | -42.26769 | 35196 ft | 590 kts | 77° |
| 2026-05-05 08:57 | 46.65435 | -42.15256 | 35197 ft | 591 kts | 77° |
| 2026-05-05 08:58 | 46.67403 | -42.03713 | 35201 ft | 590 kts | 77° |
| 2026-05-05 08:58 | 46.69373 | -41.92072 | 35208 ft | 592 kts | 77° |
| 2026-05-05 08:59 | 46.71317 | -41.80516 | 35215 ft | 590 kts | 77° |
| 2026-05-05 08:59 | 46.73248 | -41.68957 | 35219 ft | 589 kts | 77° |
| 2026-05-05 09:00 | 46.75179 | -41.57319 | 35222 ft | 588 kts | 77° |
| 2026-05-05 09:00 | 46.77087 | -41.45741 | 35222 ft | 591 kts | 77° |
| 2026-05-05 09:01 | 46.78978 | -41.34190 | 35222 ft | 587 kts | 77° |
| 2026-05-05 09:01 | 46.80855 | -41.22644 | 35201 ft | 589 kts | 78° |
| 2026-05-05 09:02 | 46.82726 | -41.11048 | 35396 ft | 588 kts | 77° |
| 2026-05-05 09:02 | 46.83660 | -41.05241 | 35204 ft | 588 kts | 78° |
| 2026-05-05 09:02 | 46.84578 | -40.99504 | 35203 ft | 584 kts | 78° |
| 2026-05-05 09:03 | 46.86420 | -40.87934 | 35205 ft | 587 kts | 78° |
| 2026-05-05 09:03 | 46.88249 | -40.76362 | 35213 ft | 588 kts | 78° |
| 2026-05-05 09:04 | 46.90080 | -40.64695 | 35216 ft | 590 kts | 78° |
| 2026-05-05 09:04 | 46.91888 | -40.53092 | 35221 ft | 589 kts | 77° |
| 2026-05-05 09:05 | 46.93684 | -40.41490 | 35220 ft | 589 kts | 77° |
| 2026-05-05 09:05 | 46.95480 | -40.29800 | 35197 ft | 590 kts | 78° |
| 2026-05-05 09:06 | 46.97250 | -40.18189 | 35196 ft | 588 kts | 78° |
| 2026-05-05 09:06 | 46.99018 | -40.06507 | 35200 ft | 587 kts | 78° |
| 2026-05-05 09:07 | 47.00882 | -39.94895 | 35208 ft | 589 kts | 72° |
| 2026-05-05 09:07 | 47.03744 | -39.83749 | 35208 ft | 585 kts | 66° |
| 2026-05-05 09:08 | 47.06662 | -39.72651 | 35201 ft | 584 kts | 67° |
| 2026-05-05 09:08 | 47.08079 | -39.67158 | 35042 ft | 582 kts | 67° |
| 2026-05-05 09:08 | 47.09509 | -39.61554 | 35211 ft | 584 kts | 67° |
| 2026-05-05 09:09 | 47.12301 | -39.50480 | 35188 ft | 583 kts | 68° |
| 2026-05-05 09:09 | 47.15077 | -39.39334 | 35195 ft | 581 kts | 68° |
| 2026-05-05 09:10 | 47.17818 | -39.28226 | 35184 ft | 580 kts | 69° |
| 2026-05-05 09:10 | 47.20538 | -39.17118 | 35186 ft | 580 kts | 69° |
| 2026-05-05 09:11 | 47.23243 | -39.06004 | 35186 ft | 576 kts | 69° |
| 2026-05-05 09:11 | 47.25914 | -38.94962 | 35185 ft | 579 kts | 69° |
| 2026-05-05 09:12 | 47.28582 | -38.83868 | 35187 ft | 577 kts | 68° |
| 2026-05-05 09:12 | 47.31250 | -38.72718 | 35188 ft | 576 kts | 68° |
| 2026-05-05 09:13 | 47.33901 | -38.61583 | 35363 ft | 578 kts | 68° |
| 2026-05-05 09:13 | 47.36531 | -38.50479 | 35198 ft | 579 kts | 68° |
| 2026-05-05 09:14 | 47.39156 | -38.39340 | 35194 ft | 574 kts | 68° |
| 2026-05-05 09:14 | 47.41769 | -38.28191 | 35182 ft | 576 kts | 69° |
| 2026-05-05 09:15 | 47.44362 | -38.17069 | 35190 ft | 575 kts | 69° |
| 2026-05-05 09:15 | 47.46953 | -38.05902 | 35178 ft | 574 kts | 69° |
| 2026-05-05 09:16 | 47.49522 | -37.94770 | 35183 ft | 576 kts | 69° |
| 2026-05-05 09:16 | 47.52088 | -37.83595 | 35184 ft | 574 kts | 69° |
| 2026-05-05 09:17 | 47.54634 | -37.72448 | 35185 ft | 574 kts | 69° |
| 2026-05-05 09:17 | 47.57168 | -37.61295 | 35193 ft | 573 kts | 69° |
| 2026-05-05 09:18 | 47.59701 | -37.50091 | 35190 ft | 573 kts | 69° |
| 2026-05-05 09:18 | 47.62223 | -37.38874 | 35201 ft | 575 kts | 69° |
| 2026-05-05 09:19 | 47.64729 | -37.27666 | 35180 ft | 574 kts | 70° |
| 2026-05-05 09:19 | 47.67225 | -37.16443 | 35185 ft | 573 kts | 69° |
| 2026-05-05 09:20 | 47.69700 | -37.05260 | 35197 ft | 575 kts | 69° |
| 2026-05-05 09:20 | 47.72163 | -36.94067 | 35209 ft | 574 kts | 69° |
| 2026-05-05 09:21 | 47.74623 | -36.82831 | 35209 ft | 573 kts | 70° |
| 2026-05-05 09:21 | 47.77066 | -36.71607 | 35228 ft | 568 kts | 69° |
| 2026-05-05 09:22 | 47.79471 | -36.60503 | 35217 ft | 566 kts | 69° |
| 2026-05-05 09:22 | 47.81842 | -36.49491 | 35231 ft | 560 kts | 69° |
| 2026-05-05 09:23 | 47.84213 | -36.38427 | 35238 ft | 559 kts | 68° |
| 2026-05-05 09:23 | 47.86542 | -36.27498 | 35217 ft | 558 kts | 70° |
| 2026-05-05 09:24 | 47.88864 | -36.16542 | 35205 ft | 557 kts | 69° |
| 2026-05-05 09:24 | 47.91171 | -36.05593 | 35214 ft | 552 kts | 69° |
| 2026-05-05 09:25 | 47.93448 | -35.94733 | 35219 ft | 548 kts | 69° |
| 2026-05-05 09:25 | 47.95702 | -35.83929 | 35235 ft | 548 kts | 70° |
| 2026-05-05 09:26 | 47.97947 | -35.73107 | 35225 ft | 546 kts | 70° |
| 2026-05-05 09:26 | 48.00158 | -35.62394 | 35226 ft | 546 kts | 71° |
| 2026-05-05 09:27 | 48.02378 | -35.51573 | 35227 ft | 540 kts | 71° |
| 2026-05-05 09:27 | 48.04562 | -35.40878 | 35241 ft | 542 kts | 71° |
| 2026-05-05 09:28 | 48.06735 | -35.30171 | 35234 ft | 539 kts | 72° |
| 2026-05-05 09:28 | 48.08881 | -35.19540 | 35239 ft | 537 kts | 72° |
| 2026-05-05 09:29 | 48.11022 | -35.08881 | 35235 ft | 536 kts | 72° |
| 2026-05-05 09:29 | 48.13131 | -34.98320 | 35231 ft | 531 kts | 72° |
| 2026-05-05 09:30 | 48.15237 | -34.87717 | 35242 ft | 532 kts | 72° |
| 2026-05-05 09:30 | 48.17326 | -34.77143 | 35264 ft | 530 kts | 73° |
| 2026-05-05 09:31 | 48.19404 | -34.66571 | 35273 ft | 531 kts | 72° |
| 2026-05-05 09:31 | 48.21475 | -34.55973 | 35275 ft | 531 kts | 73° |
| 2026-05-05 09:32 | 48.23526 | -34.45417 | 35275 ft | 529 kts | 73° |
| 2026-05-05 09:32 | 48.25559 | -34.34898 | 35284 ft | 528 kts | 73° |
| 2026-05-05 09:33 | 48.27586 | -34.24349 | 35283 ft | 527 kts | 73° |
| 2026-05-05 09:33 | 48.29591 | -34.13860 | 35280 ft | 525 kts | 73° |
| 2026-05-05 09:34 | 48.31578 | -34.03408 | 35291 ft | 525 kts | 73° |
| 2026-05-05 09:34 | 48.33567 | -33.92884 | 35297 ft | 523 kts | 73° |
| 2026-05-05 09:35 | 48.35528 | -33.82451 | 35296 ft | 520 kts | 73° |
| 2026-05-05 09:35 | 48.38461 | -33.66738 | 35306 ft | 524 kts | 73° |
| 2026-05-05 09:36 | 48.40405 | -33.56251 | 35310 ft | 521 kts | 73° |
| 2026-05-05 09:36 | 48.42327 | -33.45820 | 35315 ft | 520 kts | 73° |
| 2026-05-05 09:37 | 48.44252 | -33.35318 | 35302 ft | 520 kts | 73° |
| 2026-05-05 09:37 | 48.46160 | -33.24846 | 35297 ft | 517 kts | 74° |
| 2026-05-05 09:38 | 48.48047 | -33.14431 | 35299 ft | 519 kts | 73° |
| 2026-05-05 09:38 | 48.49926 | -33.03994 | 35312 ft | 516 kts | 73° |
| 2026-05-05 09:39 | 48.51783 | -32.93625 | 35305 ft | 517 kts | 74° |
| 2026-05-05 09:39 | 48.53637 | -32.83216 | 35313 ft | 514 kts | 73° |
| 2026-05-05 09:40 | 48.55484 | -32.72780 | 35321 ft | 515 kts | 73° |
| 2026-05-05 09:40 | 48.57299 | -32.62470 | 35321 ft | 515 kts | 73° |
| 2026-05-05 09:41 | 48.59123 | -32.52045 | 35325 ft | 513 kts | 73° |
| 2026-05-05 09:41 | 48.60930 | -32.41658 | 35327 ft | 513 kts | 73° |
| 2026-05-05 09:42 | 48.62729 | -32.31254 | 35323 ft | 514 kts | 73° |
| 2026-05-05 09:42 | 48.64509 | -32.20900 | 35331 ft | 511 kts | 73° |
| 2026-05-05 09:43 | 48.66278 | -32.10551 | 35335 ft | 512 kts | 73° |
| 2026-05-05 09:43 | 48.68045 | -32.00147 | 35343 ft | 510 kts | 73° |
| 2026-05-05 09:44 | 48.69794 | -31.89790 | 35331 ft | 509 kts | 73° |
| 2026-05-05 09:44 | 48.71533 | -31.79428 | 35330 ft | 509 kts | 73° |
| 2026-05-05 09:45 | 48.73263 | -31.69057 | 35327 ft | 508 kts | 73° |
| 2026-05-05 09:45 | 48.74974 | -31.58742 | 35331 ft | 507 kts | 73° |
| 2026-05-05 09:46 | 48.76679 | -31.48396 | 35333 ft | 510 kts | 73° |
| 2026-05-05 09:46 | 48.78383 | -31.37993 | 35336 ft | 509 kts | 73° |
| 2026-05-05 09:47 | 48.80068 | -31.27643 | 35330 ft | 508 kts | 73° |
| 2026-05-05 09:47 | 48.81752 | -31.17234 | 35334 ft | 507 kts | 73° |
| 2026-05-05 09:48 | 48.83423 | -31.06846 | 35337 ft | 507 kts | 73° |
| 2026-05-05 09:48 | 48.85075 | -30.96499 | 35340 ft | 508 kts | 73° |
| 2026-05-05 09:49 | 48.86716 | -30.86167 | 35340 ft | 508 kts | 73° |
| 2026-05-05 09:49 | 48.88360 | -30.75748 | 35347 ft | 508 kts | 73° |
| 2026-05-05 09:50 | 48.89990 | -30.65355 | 35344 ft | 508 kts | 73° |
| 2026-05-05 09:50 | 48.91606 | -30.54978 | 35356 ft | 507 kts | 73° |
| 2026-05-05 09:51 | 48.93213 | -30.44596 | 35365 ft | 508 kts | 73° |
| 2026-05-05 09:51 | 48.94822 | -30.34135 | 35368 ft | 507 kts | 73° |
| 2026-05-05 09:52 | 48.96410 | -30.23736 | 35356 ft | 507 kts | 73° |
| 2026-05-05 09:52 | 48.97989 | -30.13333 | 35354 ft | 507 kts | 73° |
| 2026-05-05 09:53 | 48.99566 | -30.02877 | 35354 ft | 507 kts | 73° |
| 2026-05-05 09:53 | 49.01488 | -29.92621 | 35358 ft | 503 kts | 64° |
| 2026-05-05 09:54 | 49.04110 | -29.82803 | 35357 ft | 501 kts | 63° |
| 2026-05-05 09:54 | 49.06677 | -29.72953 | 35351 ft | 501 kts | 63° |
| 2026-05-05 09:55 | 49.09184 | -29.63112 | 35353 ft | 501 kts | 64° |
| 2026-05-05 09:55 | 49.11671 | -29.53213 | 35360 ft | 501 kts | 64° |
| 2026-05-05 09:56 | 49.14117 | -29.43373 | 35363 ft | 501 kts | 64° |
| 2026-05-05 09:56 | 49.16556 | -29.33496 | 35355 ft | 500 kts | 64° |
| 2026-05-05 09:57 | 49.19002 | -29.23524 | 35361 ft | 500 kts | 64° |
| 2026-05-05 09:57 | 49.21409 | -29.13661 | 35369 ft | 500 kts | 64° |
| 2026-05-05 09:58 | 49.23816 | -29.03748 | 35369 ft | 500 kts | 64° |
| 2026-05-05 09:58 | 49.26226 | -28.93777 | 35373 ft | 498 kts | 64° |
| 2026-05-05 09:59 | 49.28596 | -28.83926 | 35370 ft | 499 kts | 64° |
| 2026-05-05 09:59 | 49.30979 | -28.73970 | 35371 ft | 496 kts | 64° |
| 2026-05-05 10:00 | 49.33328 | -28.64115 | 35371 ft | 496 kts | 63° |
| 2026-05-05 10:00 | 49.35689 | -28.54166 | 35370 ft | 496 kts | 63° |
| 2026-05-05 10:01 | 49.38039 | -28.44215 | 35372 ft | 496 kts | 63° |
| 2026-05-05 10:01 | 49.40362 | -28.34333 | 35368 ft | 495 kts | 64° |
| 2026-05-05 10:02 | 49.42696 | -28.24364 | 35358 ft | 497 kts | 63° |
| 2026-05-05 10:02 | 49.45014 | -28.14411 | 35363 ft | 497 kts | 63° |
| 2026-05-05 10:03 | 49.47337 | -28.04394 | 35366 ft | 498 kts | 63° |
| 2026-05-05 10:03 | 49.49627 | -27.94468 | 35369 ft | 498 kts | 63° |
| 2026-05-05 10:04 | 49.51931 | -27.84438 | 35370 ft | 499 kts | 63° |
| 2026-05-05 10:04 | 49.54214 | -27.74453 | 35369 ft | 500 kts | 63° |
| 2026-05-05 10:05 | 49.56500 | -27.64406 | 35368 ft | 498 kts | 63° |
| 2026-05-05 10:05 | 49.58778 | -27.54350 | 35372 ft | 499 kts | 63° |
| 2026-05-05 10:06 | 49.61038 | -27.44324 | 35370 ft | 501 kts | 63° |
| 2026-05-05 10:06 | 49.63297 | -27.34250 | 35368 ft | 500 kts | 63° |
| 2026-05-05 10:07 | 49.65563 | -27.24099 | 35359 ft | 500 kts | 63° |
| 2026-05-05 10:07 | 49.67814 | -27.13968 | 35360 ft | 500 kts | 63° |
| 2026-05-05 10:08 | 49.70049 | -27.03857 | 35365 ft | 502 kts | 63° |
| 2026-05-05 10:08 | 49.72283 | -26.93706 | 35365 ft | 502 kts | 63° |
| 2026-05-05 10:09 | 49.74506 | -26.83554 | 35363 ft | 503 kts | 63° |
| 2026-05-05 10:09 | 49.76720 | -26.73380 | 35360 ft | 497 kts | 63° |
| 2026-05-05 10:10 | 49.78919 | -26.63245 | 35363 ft | 500 kts | 63° |
| 2026-05-05 10:10 | 49.81101 | -26.53131 | 35369 ft | 501 kts | 63° |
| 2026-05-05 10:11 | 49.83297 | -26.42902 | 35360 ft | 502 kts | 63° |
| 2026-05-05 10:11 | 49.85458 | -26.32775 | 35363 ft | 499 kts | 64° |
| 2026-05-05 10:12 | 49.87630 | -26.22560 | 35353 ft | 501 kts | 64° |
| 2026-05-05 10:12 | 49.89784 | -26.12374 | 35352 ft | 501 kts | 64° |
| 2026-05-05 10:13 | 49.91923 | -26.02206 | 35355 ft | 501 kts | 64° |
| 2026-05-05 10:13 | 49.94067 | -25.91962 | 35358 ft | 498 kts | 64° |
| 2026-05-05 10:14 | 49.96195 | -25.81741 | 35364 ft | 496 kts | 64° |
| 2026-05-05 10:14 | 49.98308 | -25.71546 | 35371 ft | 497 kts | 65° |
| 2026-05-05 10:15 | 50.00411 | -25.61343 | 35373 ft | 494 kts | 65° |
| 2026-05-05 10:15 | 50.02500 | -25.51161 | 35374 ft | 498 kts | 65° |
| 2026-05-05 10:16 | 50.04572 | -25.40999 | 35377 ft | 496 kts | 65° |
| 2026-05-05 10:16 | 50.06632 | -25.30851 | 35366 ft | 494 kts | 66° |
| 2026-05-05 10:17 | 50.08693 | -25.20647 | 35367 ft | 495 kts | 66° |
| 2026-05-05 10:17 | 50.10722 | -25.10549 | 35380 ft | 494 kts | 66° |
| 2026-05-05 10:18 | 50.12770 | -25.00299 | 35379 ft | 493 kts | 67° |
| 2026-05-05 10:18 | 50.14778 | -24.90202 | 35367 ft | 493 kts | 66° |
| 2026-05-05 10:19 | 50.16785 | -24.80051 | 35363 ft | 493 kts | 67° |
| 2026-05-05 10:19 | 50.18787 | -24.69878 | 35349 ft | 492 kts | 67° |
| 2026-05-05 10:20 | 50.20765 | -24.59767 | 35365 ft | 490 kts | 67° |
| 2026-05-05 10:20 | 50.22742 | -24.49613 | 35356 ft | 492 kts | 68° |
| 2026-05-05 10:21 | 50.24720 | -24.39398 | 35363 ft | 489 kts | 68° |
| 2026-05-05 10:21 | 50.26680 | -24.29222 | 35357 ft | 491 kts | 69° |
| 2026-05-05 10:22 | 50.28631 | -24.19037 | 35362 ft | 490 kts | 69° |
| 2026-05-05 10:22 | 50.30571 | -24.08858 | 35608 ft | 490 kts | 69° |
| 2026-05-05 10:23 | 50.31527 | -24.03819 | 35218 ft | 489 kts | 69° |
| 2026-05-05 10:23 | 50.32487 | -23.98743 | 35431 ft | 488 kts | 69° |
| 2026-05-05 10:23 | 50.34402 | -23.88584 | 35352 ft | 489 kts | 70° |
| 2026-05-05 10:24 | 50.36308 | -23.78421 | 35351 ft | 488 kts | 70° |
| 2026-05-05 10:24 | 50.38209 | -23.68219 | 35353 ft | 487 kts | 70° |
| 2026-05-05 10:25 | 50.40084 | -23.58112 | 35352 ft | 487 kts | 70° |
| 2026-05-05 10:25 | 50.41954 | -23.47969 | 35365 ft | 487 kts | 70° |
| 2026-05-05 10:26 | 50.43816 | -23.37817 | 35361 ft | 486 kts | 70° |
| 2026-05-05 10:26 | 50.45668 | -23.27661 | 35345 ft | 487 kts | 71° |
| 2026-05-05 10:27 | 50.47513 | -23.17490 | 35349 ft | 487 kts | 71° |
| 2026-05-05 10:27 | 50.49352 | -23.07293 | 35349 ft | 486 kts | 71° |
| 2026-05-05 10:28 | 50.51181 | -22.97092 | 35343 ft | 486 kts | 71° |
| 2026-05-05 10:28 | 50.52999 | -22.86898 | 35343 ft | 486 kts | 71° |
| 2026-05-05 10:29 | 50.54797 | -22.76763 | 35349 ft | 485 kts | 72° |
| 2026-05-05 10:29 | 50.56593 | -22.66577 | 35341 ft | 485 kts | 72° |
| 2026-05-05 10:30 | 50.58388 | -22.56339 | 35349 ft | 485 kts | 72° |
| 2026-05-05 10:30 | 50.60156 | -22.46195 | 35338 ft | 486 kts | 72° |
| 2026-05-05 10:31 | 50.61924 | -22.35992 | 35351 ft | 485 kts | 72° |
| 2026-05-05 10:31 | 50.63694 | -22.25720 | 35343 ft | 485 kts | 73° |
| 2026-05-05 10:32 | 50.65443 | -22.15508 | 35334 ft | 485 kts | 73° |
| 2026-05-05 10:32 | 50.67186 | -22.05271 | 35330 ft | 485 kts | 73° |
| 2026-05-05 10:33 | 50.68909 | -21.95097 | 35332 ft | 485 kts | 73° |
| 2026-05-05 10:33 | 50.70632 | -21.84859 | 35323 ft | 485 kts | 73° |
| 2026-05-05 10:34 | 50.72355 | -21.74557 | 35334 ft | 486 kts | 73° |
| 2026-05-05 10:34 | 50.74061 | -21.64298 | 35331 ft | 486 kts | 73° |
| 2026-05-05 10:35 | 50.75763 | -21.54001 | 35335 ft | 486 kts | 73° |
| 2026-05-05 10:35 | 50.77456 | -21.43700 | 35330 ft | 487 kts | 73° |
| 2026-05-05 10:36 | 50.79143 | -21.33368 | 35327 ft | 486 kts | 74° |
| 2026-05-05 10:36 | 50.80805 | -21.23124 | 35325 ft | 486 kts | 74° |
| 2026-05-05 10:37 | 50.81640 | -21.17956 | 35203 ft | 487 kts | 74° |
| 2026-05-05 10:37 | 50.82473 | -21.12784 | 35283 ft | 488 kts | 74° |
| 2026-05-05 10:37 | 50.84135 | -21.02419 | 35324 ft | 487 kts | 74° |
| 2026-05-05 10:38 | 50.85783 | -20.92070 | 35319 ft | 487 kts | 74° |
| 2026-05-05 10:38 | 50.87426 | -20.81692 | 35323 ft | 487 kts | 74° |
| 2026-05-05 10:39 | 50.89053 | -20.71355 | 35318 ft | 487 kts | 74° |
| 2026-05-05 10:39 | 50.90675 | -20.60976 | 35320 ft | 487 kts | 74° |
| 2026-05-05 10:40 | 50.92283 | -20.50622 | 35313 ft | 486 kts | 74° |
| 2026-05-05 10:40 | 50.93885 | -20.40241 | 35310 ft | 486 kts | 74° |
| 2026-05-05 10:41 | 50.95485 | -20.29810 | 35296 ft | 488 kts | 75° |
| 2026-05-05 10:41 | 50.97076 | -20.19361 | 35289 ft | 488 kts | 75° |
| 2026-05-05 10:42 | 50.99403 | -20.03724 | 35302 ft | 489 kts | 79° |
| 2026-05-05 10:43 | 50.99972 | -19.93004 | 35303 ft | 490 kts | 86° |
| 2026-05-05 10:43 | 51.00272 | -19.82210 | 35311 ft | 489 kts | 87° |
| 2026-05-05 10:44 | 51.00522 | -19.71525 | 35306 ft | 488 kts | 87° |
| 2026-05-05 10:44 | 51.00744 | -19.60728 | 35312 ft | 489 kts | 87° |
| 2026-05-05 10:45 | 51.00944 | -19.50039 | 35310 ft | 488 kts | 87° |
| 2026-05-05 10:45 | 51.01130 | -19.39263 | 35313 ft | 487 kts | 88° |
| 2026-05-05 10:46 | 51.01301 | -19.28578 | 35308 ft | 488 kts | 88° |
| 2026-05-05 10:46 | 51.01462 | -19.17820 | 35300 ft | 487 kts | 89° |
| 2026-05-05 10:47 | 51.01613 | -19.07059 | 35304 ft | 487 kts | 89° |
| 2026-05-05 10:47 | 51.01751 | -18.96416 | 35295 ft | 488 kts | 88° |
| 2026-05-05 10:48 | 51.01880 | -18.85711 | 35288 ft | 487 kts | 88° |
| 2026-05-05 10:48 | 51.02000 | -18.74954 | 35289 ft | 487 kts | 88° |
| 2026-05-05 10:49 | 51.02110 | -18.64198 | 35286 ft | 489 kts | 89° |
| 2026-05-05 10:49 | 51.02210 | -18.53464 | 35281 ft | 488 kts | 89° |
| 2026-05-05 10:50 | 51.02299 | -18.42771 | 35276 ft | 487 kts | 88° |
| 2026-05-05 10:50 | 51.02380 | -18.32002 | 35265 ft | 488 kts | 89° |
| 2026-05-05 10:51 | 51.02449 | -18.21312 | 35260 ft | 489 kts | 89° |
| 2026-05-05 10:51 | 51.02510 | -18.10526 | 35257 ft | 488 kts | 89° |
| 2026-05-05 10:52 | 51.02560 | -17.99819 | 35259 ft | 489 kts | 89° |
| 2026-05-05 10:52 | 51.02601 | -17.89035 | 35274 ft | 490 kts | 89° |
| 2026-05-05 10:53 | 51.02632 | -17.78285 | 35271 ft | 490 kts | 89° |
| 2026-05-05 10:53 | 51.02653 | -17.67494 | 35273 ft | 489 kts | 89° |
| 2026-05-05 10:54 | 51.02665 | -17.56754 | 35276 ft | 488 kts | 89° |
| 2026-05-05 10:54 | 51.02666 | -17.46045 | 35267 ft | 486 kts | 89° |
| 2026-05-05 10:55 | 51.02657 | -17.35395 | 35274 ft | 486 kts | 89° |
| 2026-05-05 10:55 | 51.02639 | -17.24717 | 35250 ft | 487 kts | 90° |
| 2026-05-05 10:56 | 51.02611 | -17.14034 | 35248 ft | 487 kts | 89° |
| 2026-05-05 10:56 | 51.02573 | -17.03305 | 35241 ft | 485 kts | 89° |
| 2026-05-05 10:57 | 51.02526 | -16.92601 | 35230 ft | 485 kts | 89° |
| 2026-05-05 10:57 | 51.02469 | -16.81951 | 35228 ft | 485 kts | 90° |
| 2026-05-05 10:58 | 51.02402 | -16.71234 | 35229 ft | 485 kts | 89° |
| 2026-05-05 10:58 | 51.02325 | -16.60570 | 35224 ft | 485 kts | 89° |
| 2026-05-05 10:59 | 51.02240 | -16.49992 | 35221 ft | 485 kts | 89° |
| 2026-05-05 10:59 | 51.02143 | -16.39295 | 35228 ft | 486 kts | 89° |
| 2026-05-05 11:00 | 51.02037 | -16.28578 | 35227 ft | 487 kts | 90° |
| 2026-05-05 11:00 | 51.01922 | -16.17937 | 35227 ft | 486 kts | 90° |
| 2026-05-05 11:01 | 51.01797 | -16.07235 | 35230 ft | 487 kts | 90° |
| 2026-05-05 11:01 | 51.01660 | -15.96473 | 35229 ft | 486 kts | 90° |
| 2026-05-05 11:02 | 51.01516 | -15.85826 | 35227 ft | 486 kts | 90° |
| 2026-05-05 11:02 | 51.01362 | -15.75179 | 35226 ft | 485 kts | 90° |
| 2026-05-05 11:03 | 51.01198 | -15.64512 | 35220 ft | 485 kts | 90° |
| 2026-05-05 11:03 | 51.01024 | -15.53833 | 35221 ft | 485 kts | 90° |
| 2026-05-05 11:04 | 51.00840 | -15.43158 | 35214 ft | 486 kts | 90° |
| 2026-05-05 11:04 | 51.00647 | -15.32473 | 35208 ft | 485 kts | 91° |
| 2026-05-05 11:05 | 51.00444 | -15.21832 | 35199 ft | 485 kts | 90° |
| 2026-05-05 11:05 | 51.00231 | -15.11159 | 35199 ft | 485 kts | 90° |
| 2026-05-05 11:06 | 51.00010 | -15.00529 | 35191 ft | 485 kts | 90° |
| 2026-05-05 11:06 | 50.99986 | -14.89903 | 35189 ft | 484 kts | 88° |
| 2026-05-05 11:07 | 51.00041 | -14.79264 | 35190 ft | 483 kts | 88° |
| 2026-05-05 11:07 | 51.00076 | -14.68675 | 35187 ft | 483 kts | 88° |
| 2026-05-05 11:08 | 51.00095 | -14.58040 | 35184 ft | 484 kts | 88° |
| 2026-05-05 11:08 | 51.00101 | -14.47344 | 35184 ft | 483 kts | 88° |
| 2026-05-05 11:09 | 51.00095 | -14.36758 | 35181 ft | 483 kts | 88° |
| 2026-05-05 11:09 | 51.00080 | -14.26124 | 35175 ft | 483 kts | 88° |
| 2026-05-05 11:10 | 51.00054 | -14.15573 | 35174 ft | 482 kts | 88° |
| 2026-05-05 11:10 | 51.00018 | -14.04916 | 35174 ft | 481 kts | 88° |
| 2026-05-05 11:11 | 51.00402 | -13.94468 | 35175 ft | 479 kts | 81° |
| 2026-05-05 11:11 | 51.01221 | -13.83991 | 35173 ft | 479 kts | 81° |
| 2026-05-05 11:12 | 51.02027 | -13.73531 | 35165 ft | 479 kts | 81° |
| 2026-05-05 11:12 | 51.02822 | -13.63040 | 35168 ft | 480 kts | 81° |
| 2026-05-05 11:13 | 51.03605 | -13.52557 | 35162 ft | 480 kts | 81° |
| 2026-05-05 11:13 | 51.04372 | -13.42142 | 35165 ft | 479 kts | 81° |
| 2026-05-05 11:14 | 51.05138 | -13.31605 | 35164 ft | 479 kts | 81° |
| 2026-05-05 11:14 | 51.05887 | -13.21172 | 35151 ft | 479 kts | 81° |
| 2026-05-05 11:15 | 51.06628 | -13.10713 | 35154 ft | 479 kts | 82° |
| 2026-05-05 11:15 | 51.07364 | -13.00184 | 35158 ft | 480 kts | 81° |
| 2026-05-05 11:16 | 51.08089 | -12.89668 | 35148 ft | 480 kts | 81° |
| 2026-05-05 11:16 | 51.08799 | -12.79237 | 35149 ft | 479 kts | 81° |
| 2026-05-05 11:17 | 51.09502 | -12.68751 | 35147 ft | 478 kts | 81° |
| 2026-05-05 11:17 | 51.10198 | -12.58245 | 35146 ft | 478 kts | 82° |
| 2026-05-05 11:18 | 51.10880 | -12.47807 | 35146 ft | 478 kts | 81° |
| 2026-05-05 11:18 | 51.11559 | -12.37258 | 35141 ft | 477 kts | 81° |
| 2026-05-05 11:19 | 51.12220 | -12.26841 | 35143 ft | 478 kts | 82° |
| 2026-05-05 11:19 | 51.12876 | -12.16359 | 35135 ft | 476 kts | 82° |
| 2026-05-05 11:20 | 51.13522 | -12.05885 | 35135 ft | 476 kts | 82° |
| 2026-05-05 11:20 | 51.14155 | -11.95460 | 35132 ft | 477 kts | 82° |
| 2026-05-05 11:21 | 51.14784 | -11.84960 | 35125 ft | 478 kts | 82° |
| 2026-05-05 11:21 | 51.15403 | -11.74445 | 35127 ft | 477 kts | 82° |
| 2026-05-05 11:22 | 51.16009 | -11.63999 | 35124 ft | 477 kts | 82° |
| 2026-05-05 11:22 | 51.16607 | -11.53525 | 35130 ft | 477 kts | 83° |
| 2026-05-05 11:23 | 51.17198 | -11.43010 | 35129 ft | 477 kts | 83° |
| 2026-05-05 11:23 | 51.17777 | -11.32534 | 35120 ft | 477 kts | 83° |
| 2026-05-05 11:24 | 51.18346 | -11.22068 | 35120 ft | 477 kts | 83° |
| 2026-05-05 11:24 | 51.18908 | -11.11569 | 35121 ft | 477 kts | 84° |
| 2026-05-05 11:25 | 51.19460 | -11.01067 | 35128 ft | 477 kts | 84° |
| 2026-05-05 11:25 | 51.20002 | -10.90579 | 35130 ft | 477 kts | 84° |
| 2026-05-05 11:26 | 51.20537 | -10.80045 | 35130 ft | 478 kts | 84° |
| 2026-05-05 11:26 | 51.21036 | -10.69582 | 35128 ft | 476 kts | 85° |
| 2026-05-05 11:27 | 51.21262 | -10.59011 | 35126 ft | 477 kts | 86° |
| 2026-05-05 11:27 | 51.21468 | -10.48560 | 35122 ft | 477 kts | 86° |
| 2026-05-05 11:28 | 51.21677 | -10.37987 | 35121 ft | 476 kts | 86° |
| 2026-05-05 11:28 | 51.21879 | -10.27492 | 35117 ft | 475 kts | 87° |
| 2026-05-05 11:29 | 51.22075 | -10.17023 | 35115 ft | 475 kts | 87° |
| 2026-05-05 11:29 | 51.22263 | -10.06486 | 35115 ft | 476 kts | 87° |
| 2026-05-05 11:30 | 51.22442 | -9.95970 | 35112 ft | 476 kts | 87° |
| 2026-05-05 11:30 | 51.22612 | -9.85449 | 35112 ft | 476 kts | 87° |
| 2026-05-05 11:31 | 51.22773 | -9.74949 | 35111 ft | 475 kts | 87° |
| 2026-05-05 11:31 | 51.22924 | -9.64457 | 35111 ft | 476 kts | 87° |
| 2026-05-05 11:32 | 51.23067 | -9.53938 | 35109 ft | 476 kts | 87° |
| 2026-05-05 11:32 | 51.23200 | -9.43440 | 35110 ft | 475 kts | 87° |
| 2026-05-05 11:33 | 51.23323 | -9.32942 | 35109 ft | 476 kts | 88° |
| 2026-05-05 11:33 | 51.23437 | -9.22475 | 35109 ft | 476 kts | 88° |
| 2026-05-05 11:34 | 51.23542 | -9.11886 | 35108 ft | 476 kts | 88° |